Time;durP1;ratioP1;P1;durP2;ratioP2;P2;SDS_P1;SDS_P2;PMS_P1;PMS_P2;Temp;Humidity;BMP_temperature;BMP_pressure;BME280_temperature;BME280_humidity;BME280_pressure;Samples;Min_cycle;Max_cycle;Signal;HPM_P1;HPM_P2
2023/08/02 00:02:38;;;;;;;10.32;3.30;;;16.00;99.90;;;;;;20849152;28;20029;-43
2023/08/02 00:12:39;;;;;;;8.73;3.55;;;15.90;99.90;;;;;;20854325;28;20041;-42
2023/08/02 00:22:40;;;;;;;14.77;4.30;;;15.90;98.40;;;;;;20855077;28;20041;-42
2023/08/02 00:32:46;;;;;;;15.80;4.53;;;16.00;93.20;;;;;;20849977;28;20020;-42
2023/08/02 00:42:47;;;;;;;11.77;4.00;;;15.90;92.10;;;;;;20845037;28;20454;-42
2023/08/02 00:52:48;;;;;;;15.68;4.55;;;15.90;93.10;;;;;;20849665;28;20538;-42
2023/08/02 01:02:50;;;;;;;9.82;3.67;;;16.00;93.50;;;;;;20847636;28;20033;-43
2023/08/02 01:12:54;;;;;;;9.48;4.32;;;16.00;88.00;;;;;;20849834;28;20029;-42
2023/08/02 01:22:55;;;;;;;10.30;4.22;;;16.00;89.50;;;;;;20850881;28;20431;-43
2023/08/02 01:32:57;;;;;;;12.70;3.90;;;16.00;92.90;;;;;;20835895;28;20126;-42
2023/08/02 01:42:58;;;;;;;9.68;4.65;;;16.00;92.60;;;;;;20842175;28;20439;-43
2023/08/02 01:52:59;;;;;;;8.80;4.60;;;16.00;86.90;;;;;;20843072;28;20561;-43
2023/08/02 02:03:00;;;;;;;11.10;4.50;;;16.10;59.10;;;;;;20842096;28;20509;-43
2023/08/02 02:13:01;;;;;;;10.40;4.93;;;16.00;60.90;;;;;;20841255;28;20434;-42
2023/08/02 02:23:03;;;;;;;11.15;4.72;;;15.90;73.00;;;;;;20846910;28;20552;-43
2023/08/02 02:33:04;;;;;;;12.07;5.50;;;15.80;77.60;;;;;;20841578;28;20431;-43
2023/08/02 02:43:05;;;;;;;9.32;4.53;;;15.80;75.50;;;;;;20835737;28;20276;-43
2023/08/02 02:53:06;;;;;;;9.77;4.30;;;15.80;76.80;;;;;;20837679;28;20556;-42
2023/08/02 03:03:07;;;;;;;10.85;3.83;;;15.80;94.30;;;;;;20835160;28;20427;-43
2023/08/02 03:13:08;;;;;;;10.27;4.63;;;15.70;93.80;;;;;;20837302;28;20567;-43
2023/08/02 03:23:10;;;;;;;10.32;4.68;;;15.70;99.90;;;;;;20836299;28;20484;-43
2023/08/02 03:33:11;;;;;;;9.32;4.30;;;15.60;99.90;;;;;;20839486;28;20041;-43
2023/08/02 03:43:12;;;;;;;9.93;4.55;;;15.60;99.90;;;;;;20852466;28;20021;-43
2023/08/02 03:53:13;;;;;;;9.20;4.28;;;15.60;99.90;;;;;;20848805;28;20082;-43
2023/08/02 04:03:14;;;;;;;8.60;4.03;;;15.60;99.90;;;;;;20848164;28;20071;-43
2023/08/02 04:13:15;;;;;;;8.85;4.05;;;15.70;99.90;;;;;;20850842;28;20025;-43
2023/08/02 04:23:16;;;;;;;9.07;3.63;;;15.90;99.90;;;;;;20849185;28;20033;-43
2023/08/02 04:33:18;;;;;;;10.35;3.92;;;15.90;99.90;;;;;;20847590;28;20082;-43
2023/08/02 04:43:19;;;;;;;9.40;3.92;;;15.90;99.90;;;;;;20842572;28;20029;-43
2023/08/02 04:53:20;;;;;;;9.80;3.65;;;15.90;99.90;;;;;;20848083;28;20126;-43
2023/08/02 05:03:21;;;;;;;8.02;3.75;;;15.80;99.90;;;;;;20858242;28;21324;-43
2023/08/02 05:13:23;;;;;;;9.07;3.88;;;15.90;99.90;;;;;;20848246;28;21122;-43
2023/08/02 05:23:27;;;;;;;8.10;4.00;;;16.00;99.90;;;;;;20845748;28;20090;-43
2023/08/02 05:33:28;;;;;;;9.95;4.90;;;16.00;99.90;;;;;;20847656;28;20045;-43
2023/08/02 05:43:30;;;;;;;13.30;5.60;;;15.90;99.90;;;;;;20841124;28;20098;-43
2023/08/02 05:53:31;;;;;;;10.80;4.78;;;15.80;99.90;;;;;;20846515;28;21097;-43
2023/08/02 06:03:32;;;;;;;10.88;5.80;;;15.80;99.90;;;;;;20830513;28;20037;-42
2023/08/02 06:13:33;;;;;;;7.35;5.05;;;15.80;99.90;;;;;;20843785;28;20213;-44
2023/08/02 06:23:34;;;;;;;9.07;4.15;;;15.70;99.90;;;;;;20846081;28;20048;-44
2023/08/02 06:33:35;;;;;;;9.70;4.50;;;15.60;99.90;;;;;;20848825;28;20098;-45
2023/08/02 06:43:36;;;;;;;8.45;4.47;;;15.60;99.90;;;;;;20845535;28;20451;-45
2023/08/02 06:53:38;;;;;;;6.93;3.75;;;15.60;99.90;;;;;;20846577;28;20045;-45
2023/08/02 07:03:39;;;;;;;5.30;3.63;;;15.60;99.90;;;;;;20836274;28;20102;-44
2023/08/02 07:13:44;;;;;;;7.85;4.13;;;15.70;99.90;;;;;;20837293;28;20119;-44
2023/08/02 07:23:45;;;;;;;5.50;3.92;;;15.80;99.90;;;;;;20842232;28;20545;-45
2023/08/02 07:33:47;;;;;;;6.65;3.53;;;15.80;99.90;;;;;;20840566;28;20593;-45
2023/08/02 07:43:48;;;;;;;3.58;2.35;;;15.70;99.90;;;;;;20840032;28;20118;-44
2023/08/02 07:53:49;;;;;;;5.57;2.30;;;15.70;99.90;;;;;;20843699;28;20089;-45
2023/08/02 08:03:50;;;;;;;3.60;1.88;;;15.80;99.90;;;;;;20841811;28;20037;-44
2023/08/02 08:13:52;;;;;;;2.55;1.45;;;16.00;99.90;;;;;;20837934;28;20103;-44
2023/08/02 08:23:53;;;;;;;2.58;1.30;;;16.00;99.90;;;;;;20847451;28;20033;-44
2023/08/02 08:33:54;;;;;;;2.75;1.40;;;16.10;99.90;;;;;;20851885;28;20097;-44
2023/08/02 08:43:55;;;;;;;2.00;1.00;;;16.20;99.90;;;;;;20853684;28;21304;-44
2023/08/02 08:54:02;;;;;;;2.55;1.30;;;16.40;99.90;;;;;;20852252;28;20086;-43
2023/08/02 09:04:04;;;;;;;2.63;1.80;;;16.60;99.90;;;;;;20854986;28;20036;-43
2023/08/02 09:14:16;;;;;;;3.45;2.50;;;16.90;99.90;;;;;;20852159;28;20033;-43
2023/08/02 09:24:31;;;;;;;3.67;2.70;;;17.30;1.00;;;;;;20849694;28;20044;-43
2023/08/02 09:34:43;;;;;;;4.32;3.67;;;17.50;1.00;;;;;;20849090;28;20105;-43
2023/08/02 09:44:57;;;;;;;6.53;4.30;;;17.40;1.00;;;;;;20844973;28;20079;-43
2023/08/02 09:54:59;;;;;;;4.78;4.07;;;17.80;1.00;;;;;;20846288;28;20071;-43
2023/08/02 10:05:01;;;;;;;4.65;4.15;;;18.40;1.00;;;;;;20847669;28;20036;-42
2023/08/02 10:15:03;;;;;;;4.57;3.90;;;18.90;99.90;;;;;;20847264;28;20114;-43
2023/08/02 10:25:05;;;;;;;4.82;3.90;;;19.40;99.90;;;;;;20841980;28;20044;-42
2023/08/02 10:35:06;;;;;;;3.88;2.70;;;20.10;99.90;;;;;;20840469;28;20041;-41
2023/08/02 10:45:12;;;;;;;4.20;1.40;;;20.40;99.90;;;;;;20797482;28;20075;-41
2023/08/02 10:55:17;;;;;;;3.28;1.30;;;21.00;87.10;;;;;;20840117;28;20501;-42
2023/08/02 11:05:46;;;;;;;3.75;0.93;;;21.30;1.00;;;;;;20835732;28;20345;-42
2023/08/02 11:16:00;;;;;;;7.90;1.83;;;21.50;1.00;;;;;;20848070;28;20545;-42
2023/08/02 11:26:07;;;;;;;7.10;2.33;;;21.70;1.00;;;;;;20844574;28;20041;-43
2023/08/02 11:36:08;;;;;;;4.78;1.42;;;21.50;1.00;;;;;;20842254;28;21141;-42
2023/08/02 11:46:26;;;;;;;3.35;0.82;;;21.60;1.00;;;;;;20845914;28;20124;-42
2023/08/02 11:56:28;;;;;;;4.53;1.08;;;21.90;1.00;;;;;;20847710;28;20444;-41
2023/08/02 12:07:01;;;;;;;5.32;0.80;;;22.40;1.00;;;;;;20857073;28;20089;-41
2023/08/02 12:17:03;;;;;;;3.72;0.95;;;22.80;1.00;;;;;;20811521;28;20045;-41
2023/08/02 12:27:18;;;;;;;2.83;0.68;;;22.80;1.00;;;;;;20858161;28;20045;-41
2023/08/02 12:37:19;;;;;;;3.92;0.70;;;22.60;1.00;;;;;;20854303;28;20896;-41
2023/08/02 12:47:20;;;;;;;6.25;1.08;;;22.30;1.00;;;;;;20853179;28;20098;-41
2023/08/02 12:57:21;;;;;;;7.57;1.00;;;22.80;1.00;;;;;;20855976;28;20049;-41
2023/08/02 13:07:22;;;;;;;4.35;0.85;;;22.60;1.00;;;;;;20853278;28;20101;-41
2023/08/02 13:17:24;;;;;;;5.05;0.60;;;22.30;1.00;;;;;;20852000;28;20599;-41
2023/08/02 13:27:25;;;;;;;4.25;0.82;;;23.10;1.00;;;;;;20849958;28;20481;-41
2023/08/02 13:37:26;;;;;;;5.00;0.68;;;22.30;1.00;;;;;;20844801;28;20045;-41
2023/08/02 13:47:27;;;;;;;7.30;1.45;;;21.90;1.00;;;;;;20855262;28;20450;-41
2023/08/02 13:57:28;;;;;;;4.93;0.77;;;21.90;1.00;;;;;;20846075;28;20880;-41
2023/08/02 14:07:29;;;;;;;4.45;0.57;;;22.20;1.00;;;;;;20847834;28;20049;-41
2023/08/02 14:17:30;;;;;;;4.60;1.40;;;22.50;1.00;;;;;;20839706;28;20041;-41
2023/08/02 14:27:32;;;;;;;6.90;0.93;;;22.50;1.00;;;;;;20847025;28;20149;-41
2023/08/02 14:37:33;;;;;;;5.68;1.10;;;22.30;1.00;;;;;;20843161;28;20550;-41
2023/08/02 14:47:34;;;;;;;8.88;1.80;;;22.40;1.00;;;;;;20838403;28;20044;-41
2023/08/02 14:57:35;;;;;;;6.60;1.40;;;22.10;1.00;;;;;;20826171;28;20040;-41
2023/08/02 15:07:37;;;;;;;7.97;1.63;;;21.90;1.00;;;;;;20791032;28;20041;-41
2023/08/02 15:17:42;;;;;;;6.25;1.30;;;21.50;1.00;;;;;;20830098;28;20037;-41
2023/08/02 15:27:43;;;;;;;7.63;1.63;;;21.10;1.00;;;;;;20810485;28;20033;-41
2023/08/02 15:37:47;;;;;;;14.75;2.22;;;20.90;1.00;;;;;;20821535;28;20102;-41
2023/08/02 15:47:49;;;;;;;8.25;1.00;;;20.00;1.00;;;;;;20818131;28;20107;-41
2023/08/02 15:57:50;;;;;;;6.28;1.35;;;18.90;1.00;;;;;;20814350;28;20090;-41
2023/08/02 16:07:51;;;;;;;5.22;1.30;;;18.70;1.00;;;;;;20838574;28;20062;-41
2023/08/02 16:17:52;;;;;;;10.10;1.42;;;18.80;1.00;;;;;;20838821;28;20033;-41
2023/08/02 16:27:53;;;;;;;9.52;1.70;;;18.80;1.00;;;;;;20822613;28;20037;-41
2023/08/02 16:37:54;;;;;;;7.28;1.50;;;18.90;1.00;;;;;;20840135;28;20102;-41
2023/08/02 16:47:56;;;;;;;7.00;1.42;;;19.00;1.00;;;;;;20861177;28;20566;-41
2023/08/02 16:57:59;;;;;;;7.82;1.75;;;19.10;1.00;;;;;;20856076;28;20037;-41
2023/08/02 17:08:00;;;;;;;10.07;2.05;;;19.20;1.00;;;;;;20846035;28;20114;-41
2023/08/02 17:18:01;;;;;;;6.63;1.30;;;19.00;1.00;;;;;;20844784;28;20378;-41
2023/08/02 17:28:02;;;;;;;9.65;1.67;;;19.10;1.00;;;;;;20848848;28;20106;-41
2023/08/02 17:38:03;;;;;;;4.97;1.75;;;19.40;1.00;;;;;;20841183;28;20098;-41
2023/08/02 17:48:11;;;;;;;3.97;0.98;;;19.10;1.00;;;;;;20843866;28;20041;-41
2023/08/02 17:58:12;;;;;;;3.70;0.65;;;17.90;1.00;;;;;;20839778;28;20102;-41
2023/08/02 18:08:13;;;;;;;7.13;0.93;;;17.70;56.30;;;;;;20841676;28;20045;-41
2023/08/02 18:18:14;;;;;;;5.30;1.67;;;17.60;86.20;;;;;;20840059;28;20041;-41
2023/08/02 18:28:16;;;;;;;8.88;1.27;;;17.60;96.90;;;;;;20841598;28;20504;-41
2023/08/02 18:38:17;;;;;;;8.43;1.20;;;17.50;74.90;;;;;;20837351;28;20076;-41
2023/08/02 18:48:18;;;;;;;8.95;1.48;;;17.50;62.20;;;;;;20838738;28;20098;-40
2023/08/02 18:58:19;;;;;;;4.13;1.10;;;17.20;99.90;;;;;;20840782;28;20028;-41
2023/08/02 19:08:20;;;;;;;8.90;2.10;;;16.90;99.90;;;;;;20838775;28;20090;-42
2023/08/02 19:18:21;;;;;;;4.25;1.20;;;16.80;99.90;;;;;;20838287;28;20097;-42
2023/08/02 19:28:23;;;;;;;3.58;1.38;;;16.70;99.90;;;;;;20836174;28;20052;-42
2023/08/02 19:38:24;;;;;;;4.30;1.27;;;16.60;99.90;;;;;;20836355;28;20070;-42
2023/08/02 19:48:26;;;;;;;5.45;1.58;;;16.70;99.90;;;;;;20836039;28;20098;-42
2023/08/02 19:58:27;;;;;;;4.55;1.40;;;16.70;99.90;;;;;;20834202;28;20094;-42
2023/08/02 20:08:33;;;;;;;3.35;1.38;;;16.70;99.90;;;;;;20831814;28;20037;-42
2023/08/02 20:18:35;;;;;;;5.67;1.90;;;16.80;99.90;;;;;;20845912;28;20053;-42
2023/08/02 20:28:47;;;;;;;5.97;1.20;;;16.80;99.90;;;;;;20846287;28;20480;-42
2023/08/02 20:38:51;;;;;;;3.05;1.13;;;16.70;99.90;;;;;;20848802;28;20093;-42
2023/08/02 20:49:01;;;;;;;5.15;1.45;;;16.70;99.90;;;;;;20849596;28;20093;-41
2023/08/02 20:59:09;;;;;;;4.45;1.40;;;16.70;99.90;;;;;;20844148;28;20090;-41
2023/08/02 21:09:10;;;;;;;4.45;1.30;;;16.70;99.90;;;;;;20845539;28;20423;-41
2023/08/02 21:19:12;;;;;;;5.45;1.30;;;16.90;99.90;;;;;;20836592;28;20090;-41
2023/08/02 21:29:13;;;;;;;8.00;1.50;;;16.90;99.90;;;;;;20835541;28;20091;-41
2023/08/02 21:39:15;;;;;;;6.90;1.30;;;16.70;99.90;;;;;;20852602;28;20546;-41
2023/08/02 21:49:16;;;;;;;8.52;1.42;;;16.70;99.90;;;;;;20841774;28;20058;-41
2023/08/02 21:59:17;;;;;;;5.70;1.25;;;16.70;99.90;;;;;;20842906;28;20044;-41
2023/08/02 22:09:18;;;;;;;6.05;1.33;;;16.60;99.90;;;;;;20840548;28;20365;-41
2023/08/02 22:19:21;;;;;;;2.75;1.42;;;16.50;99.90;;;;;;20841371;28;20493;-41
2023/08/02 22:29:22;;;;;;;4.50;1.65;;;16.50;99.90;;;;;;20821480;28;20041;-41
2023/08/02 22:39:23;;;;;;;3.95;1.58;;;16.50;99.90;;;;;;20821153;28;20133;-41
2023/08/02 22:49:25;;;;;;;5.20;2.10;;;16.50;99.90;;;;;;20824719;28;20726;-41
2023/08/02 22:59:26;;;;;;;5.20;2.08;;;16.40;99.90;;;;;;20820700;28;20149;-41
2023/08/02 23:09:27;;;;;;;4.72;2.22;;;16.40;99.90;;;;;;20825642;28;20101;-41
2023/08/02 23:19:29;;;;;;;5.78;2.72;;;16.50;99.90;;;;;;20822745;28;20106;-40
2023/08/02 23:29:30;;;;;;;5.15;2.55;;;16.50;99.90;;;;;;20824141;28;20048;-41
2023/08/02 23:39:32;;;;;;;6.78;2.95;;;16.50;99.90;;;;;;20819654;28;20041;-41
2023/08/02 23:49:33;;;;;;;6.32;2.60;;;16.50;99.90;;;;;;20818676;28;20483;-41
2023/08/02 23:59:34;;;;;;;5.05;2.20;;;16.40;99.90;;;;;;20840275;28;20469;-40
